createdAt,value
2023-03-29T00:00:42.302Z,2.73
2023-03-29T00:03:13.707Z,2.40
2023-03-29T00:05:41.785Z,3.70
2023-03-29T00:08:14.428Z,4.23
2023-03-29T00:10:42.611Z,2.77
2023-03-29T00:13:10.419Z,2.70
2023-03-29T00:15:38.220Z,2.43
2023-03-29T00:18:06.361Z,1.97
2023-03-29T00:20:35.564Z,2.30
2023-03-29T00:23:03.356Z,3.57
2023-03-29T00:25:31.354Z,3.30
2023-03-29T00:27:59.130Z,3.93
2023-03-29T00:30:26.945Z,3.60
2023-03-29T00:32:54.749Z,1.70
2023-03-29T00:35:22.636Z,3.40
2023-03-29T00:37:52.854Z,1.93
2023-03-29T00:40:20.828Z,2.77
2023-03-29T00:42:48.647Z,1.53
2023-03-29T00:45:21.174Z,1.50
2023-03-29T00:47:52.086Z,1.87
2023-03-29T00:50:25.898Z,1.70
2023-03-29T00:53:03.497Z,1.40
2023-03-29T00:55:37.249Z,1.67
2023-03-29T00:58:08.412Z,4.10
2023-03-29T01:00:40.295Z,2.47
2023-03-29T01:03:13.642Z,3.50
2023-03-29T01:05:45.338Z,2.50
2023-03-29T01:08:18.941Z,2.30
2023-03-29T01:10:52.020Z,1.70
2023-03-29T01:13:27.110Z,2.30
2023-03-29T01:15:57.114Z,2.00
2023-03-29T01:18:24.940Z,1.60
2023-03-29T01:21:12.495Z,3.40
2023-03-29T01:24:07.539Z,3.63
2023-03-29T01:26:44.646Z,1.40
2023-03-29T01:29:20.911Z,2.27
2023-03-29T01:31:52.630Z,3.00
2023-03-29T01:34:25.534Z,1.60
2023-03-29T01:37:00.260Z,1.63
2023-03-29T01:39:28.339Z,2.33
2023-03-29T01:42:10.960Z,2.43
2023-03-29T01:44:48.477Z,1.67
2023-03-29T01:47:22.636Z,1.90
2023-03-29T01:49:59.514Z,1.60
2023-03-29T01:52:32.491Z,1.50
2023-03-29T01:55:08.100Z,3.30
2023-03-29T01:57:38.045Z,1.80
2023-03-29T02:00:10.878Z,2.80
2023-03-29T02:02:41.573Z,1.50
2023-03-29T02:05:12.518Z,2.57
2023-03-29T02:07:41.945Z,2.57
2023-03-29T02:10:12.256Z,2.53
2023-03-29T02:12:40.212Z,2.60
2023-03-29T02:15:13.046Z,3.07
2023-03-29T02:17:41.255Z,1.50
2023-03-29T02:20:14.278Z,2.03
2023-03-29T02:22:51.130Z,2.07
2023-03-29T02:25:19.986Z,1.60
2023-03-29T02:27:47.795Z,2.40
2023-03-29T02:30:19.387Z,2.13
2023-03-29T02:32:52.776Z,1.67
2023-03-29T02:35:26.497Z,3.07
2023-03-29T02:37:56.742Z,2.73
2023-03-29T02:40:26.823Z,4.80
2023-03-29T02:42:56.622Z,1.90
2023-03-29T02:45:27.633Z,2.10
2023-03-29T02:47:58.045Z,1.77
2023-03-29T02:50:28.639Z,1.80
2023-03-29T02:53:00.701Z,1.77
2023-03-29T02:55:34.407Z,1.80
2023-03-29T02:58:07.799Z,3.37
2023-03-29T03:00:38.318Z,1.77
2023-03-29T03:03:07.713Z,2.23
2023-03-29T03:05:36.043Z,4.30
2023-03-29T03:08:04.567Z,1.90
2023-03-29T03:10:33.790Z,2.37
2023-03-29T03:13:01.747Z,2.60
2023-03-29T03:15:31.056Z,3.70
2023-03-29T03:18:00.657Z,2.10
2023-03-29T03:20:28.447Z,1.80
2023-03-29T03:22:57.573Z,2.17
2023-03-29T03:25:25.519Z,2.73
2023-03-29T03:27:53.695Z,2.07
2023-03-29T03:30:21.750Z,2.30
2023-03-29T03:32:51.687Z,2.93
2023-03-29T03:35:20.849Z,1.70
2023-03-29T03:37:48.972Z,2.10
2023-03-29T03:40:17.265Z,2.23
2023-03-29T03:42:45.492Z,1.90
2023-03-29T03:45:13.328Z,2.20
2023-03-29T03:47:41.206Z,1.87
2023-03-29T03:50:10.174Z,3.03
2023-03-29T03:52:39.344Z,2.73
2023-03-29T03:55:08.241Z,2.80
2023-03-29T03:57:37.461Z,2.20
2023-03-29T04:00:19.190Z,2.80
2023-03-29T04:02:48.380Z,2.63
2023-03-29T04:05:17.147Z,2.13
2023-03-29T04:07:46.445Z,3.23
2023-03-29T04:10:15.701Z,3.40
2023-03-29T04:12:43.615Z,4.47
2023-03-29T04:15:12.157Z,7.57
2023-03-29T04:17:40.278Z,2.40
2023-03-29T04:20:11.869Z,2.27
2023-03-29T04:22:39.724Z,1.80
2023-03-29T04:25:10.341Z,2.00
2023-03-29T04:27:38.297Z,2.20
2023-03-29T04:30:07.207Z,2.73
2023-03-29T04:32:35.189Z,3.53
2023-03-29T04:35:04.698Z,2.33
2023-03-29T04:37:32.814Z,3.20
2023-03-29T04:40:01.217Z,3.60
2023-03-29T04:42:30.415Z,2.80
2023-03-29T04:44:58.406Z,2.70
2023-03-29T04:47:29.954Z,2.03
2023-03-29T04:49:57.958Z,2.20
2023-03-29T04:52:26.367Z,3.00
2023-03-29T04:54:54.128Z,2.03
2023-03-29T04:57:21.965Z,2.53
2023-03-29T04:59:51.352Z,2.80
2023-03-29T05:02:19.149Z,3.63
2023-03-29T05:04:46.999Z,2.40
2023-03-29T05:07:15.554Z,2.70
2023-03-29T05:09:43.685Z,1.73
2023-03-29T05:12:11.566Z,4.27
2023-03-29T05:14:39.348Z,1.87
2023-03-29T05:17:08.500Z,3.07
2023-03-29T05:19:38.238Z,2.40
2023-03-29T05:22:06.573Z,3.57
2023-03-29T05:24:34.376Z,4.37
2023-03-29T05:27:02.405Z,2.43
2023-03-29T05:29:32.666Z,2.50
2023-03-29T05:32:00.649Z,3.50
2023-03-29T05:34:31.359Z,1.73
2023-03-29T05:37:01.425Z,2.80
2023-03-29T05:39:29.346Z,2.37
2023-03-29T05:41:57.125Z,2.30
2023-03-29T05:44:24.920Z,5.87
2023-03-29T05:46:52.749Z,3.03
2023-03-29T05:49:21.483Z,2.50
2023-03-29T05:51:51.968Z,3.40
2023-03-29T05:54:19.809Z,3.50
2023-03-29T05:56:47.658Z,2.40
2023-03-29T05:59:17.578Z,2.00
2023-03-29T06:01:46.928Z,2.27
2023-03-29T06:04:15.131Z,2.30
2023-03-29T06:06:43.209Z,2.20
2023-03-29T06:09:12.355Z,2.70
2023-03-29T06:11:40.716Z,3.07
2023-03-29T06:14:08.601Z,2.50
2023-03-29T06:16:36.486Z,2.40
2023-03-29T06:19:05.303Z,3.00
2023-03-29T06:21:33.202Z,2.47
2023-03-29T06:24:01.150Z,3.43
2023-03-29T06:26:30.603Z,2.30
2023-03-29T06:28:58.578Z,2.63
2023-03-29T06:31:26.441Z,2.90
2023-03-29T06:33:54.304Z,4.30
2023-03-29T06:36:22.343Z,5.10
2023-03-29T06:38:50.138Z,2.53
2023-03-29T06:41:17.900Z,2.10
2023-03-29T06:43:47.072Z,3.60
2023-03-29T06:46:15.129Z,2.90
2023-03-29T06:48:42.965Z,3.03
2023-03-29T06:51:10.844Z,1.80
2023-03-29T06:53:38.649Z,3.47
2023-03-29T06:56:09.328Z,3.00
2023-03-29T06:58:37.875Z,2.60
2023-03-29T07:01:07.591Z,2.93
2023-03-29T07:03:36.273Z,2.20
2023-03-29T07:06:09.862Z,1.57
2023-03-29T07:08:43.287Z,4.60
2023-03-29T07:11:13.137Z,2.87
2023-03-29T07:13:42.382Z,2.20
2023-03-29T07:16:13.582Z,2.70
2023-03-29T07:18:42.804Z,1.90
2023-03-29T07:21:11.619Z,2.37
2023-03-29T07:23:39.518Z,2.47
2023-03-29T07:26:08.047Z,2.03
2023-03-29T07:28:37.388Z,2.00
2023-03-29T07:31:07.577Z,2.20
2023-03-29T07:33:36.947Z,3.00
2023-03-29T07:36:06.021Z,2.50
2023-03-29T07:38:33.808Z,2.90
2023-03-29T07:41:05.107Z,3.27
2023-03-29T07:43:34.200Z,1.83
2023-03-29T07:46:02.577Z,2.70
2023-03-29T07:48:30.470Z,2.13
2023-03-29T07:50:59.724Z,2.37
2023-03-29T07:53:29.676Z,2.63
2023-03-29T07:55:57.861Z,2.00
2023-03-29T07:58:25.723Z,2.23
2023-03-29T08:00:53.558Z,2.30
2023-03-29T08:03:21.595Z,2.40
2023-03-29T08:05:49.489Z,2.40
2023-03-29T08:08:18.671Z,2.67
2023-03-29T08:10:46.640Z,3.33
2023-03-29T08:13:14.451Z,2.20
2023-03-29T08:15:46.184Z,4.20
2023-03-29T08:18:14.245Z,2.17
2023-03-29T08:20:42.477Z,1.90
2023-03-29T08:23:10.651Z,2.80
2023-03-29T08:25:39.756Z,4.20
2023-03-29T08:28:07.535Z,2.10
2023-03-29T08:30:35.421Z,3.17
2023-03-29T08:33:03.282Z,2.07
2023-03-29T08:35:31.438Z,2.27
2023-03-29T08:37:59.264Z,1.90
2023-03-29T08:40:30.110Z,2.17
2023-03-29T08:43:17.918Z,4.93
2023-03-29T08:45:56.525Z,2.20
2023-03-29T08:48:29.410Z,5.23
2023-03-29T08:51:02.113Z,2.40
2023-03-29T08:53:33.837Z,2.57
2023-03-29T08:56:08.485Z,2.60
2023-03-29T08:58:39.365Z,1.87
2023-03-29T09:01:11.221Z,1.70
2023-03-29T09:03:43.796Z,3.50
2023-03-29T09:06:13.888Z,1.87
2023-03-29T09:08:44.896Z,2.10
2023-03-29T09:11:27.796Z,2.03
2023-03-29T09:14:07.493Z,3.17
2023-03-29T09:16:43.176Z,3.00
2023-03-29T09:19:23.404Z,1.80
2023-03-29T09:22:00.316Z,1.93
2023-03-29T09:24:44.567Z,2.60
2023-03-29T09:27:20.019Z,1.80
2023-03-29T09:30:13.827Z,2.30
2023-03-29T09:32:50.500Z,4.43
2023-03-29T09:35:22.678Z,2.03
2023-03-29T09:37:52.715Z,2.60
2023-03-29T09:40:25.269Z,7.90
2023-03-29T09:42:55.930Z,3.60
2023-03-29T09:45:25.394Z,2.20
2023-03-29T09:47:58.578Z,1.73
2023-03-29T09:50:32.343Z,1.97
2023-03-29T09:53:00.631Z,1.90
2023-03-29T09:55:32.329Z,2.33
2023-03-29T09:58:02.755Z,4.37
2023-03-29T10:00:32.032Z,2.10
2023-03-29T10:03:00.324Z,1.90
2023-03-29T10:05:31.937Z,2.07
2023-03-29T10:08:02.201Z,5.43
2023-03-29T10:10:32.816Z,6.77
2023-03-29T10:13:04.901Z,1.67
2023-03-29T10:15:34.304Z,3.23
2023-03-29T10:18:06.728Z,2.17
2023-03-29T10:20:36.587Z,1.93
2023-03-29T10:23:07.828Z,2.43
2023-03-29T10:25:42.087Z,2.50
2023-03-29T10:28:16.115Z,4.70
2023-03-29T10:30:48.761Z,3.50
2023-03-29T10:33:19.607Z,3.53
2023-03-29T10:35:49.219Z,2.50
2023-03-29T10:38:20.317Z,2.80
2023-03-29T10:40:49.510Z,2.53
2023-03-29T10:43:24.611Z,3.37
2023-03-29T10:45:56.825Z,2.07
2023-03-29T10:48:29.632Z,2.87
2023-03-29T10:51:01.611Z,4.43
2023-03-29T10:53:32.599Z,3.30
2023-03-29T10:56:14.304Z,2.40
2023-03-29T10:59:01.834Z,2.40
2023-03-29T11:01:39.092Z,3.27
2023-03-29T11:04:23.162Z,2.53
2023-03-29T11:07:14.549Z,2.30
2023-03-29T11:09:53.576Z,2.80
2023-03-29T11:12:26.807Z,2.63
2023-03-29T11:15:09.110Z,2.00
2023-03-29T11:17:52.718Z,1.87
2023-03-29T11:20:32.111Z,4.43
2023-03-29T11:23:16.364Z,3.27
2023-03-29T11:25:53.990Z,2.47
2023-03-29T11:28:31.269Z,2.67
2023-03-29T11:31:06.450Z,2.10
2023-03-29T11:33:44.839Z,2.30
2023-03-29T11:36:18.301Z,2.73
2023-03-29T11:38:55.521Z,2.17
2023-03-29T11:41:27.606Z,2.27
2023-03-29T11:44:01.570Z,2.57
2023-03-29T11:46:33.554Z,1.70
2023-03-29T11:49:06.969Z,4.83
2023-03-29T11:51:41.226Z,2.33
2023-03-29T11:54:16.746Z,1.87
2023-03-29T11:56:48.938Z,3.70
2023-03-29T11:59:23.518Z,3.07
2023-03-29T12:01:55.057Z,3.43
2023-03-29T12:04:29.686Z,2.97
2023-03-29T12:07:09.830Z,4.87
2023-03-29T12:09:42.208Z,2.20
2023-03-29T12:12:16.360Z,2.30
2023-03-29T12:14:53.114Z,3.93
2023-03-29T12:17:25.699Z,2.77
2023-03-29T12:20:03.706Z,4.10
2023-03-29T12:22:32.638Z,4.17
2023-03-29T12:25:01.458Z,2.20
2023-03-29T12:27:32.429Z,6.27
2023-03-29T12:30:25.684Z,2.40
2023-03-29T12:33:12.464Z,3.00
2023-03-29T12:35:52.400Z,3.67
2023-03-29T12:38:23.481Z,3.20
2023-03-29T12:40:56.504Z,3.60
2023-03-29T12:43:27.199Z,6.10
2023-03-29T12:46:08.157Z,3.63
2023-03-29T12:48:38.767Z,3.23
2023-03-29T12:51:13.272Z,2.20
2023-03-29T12:53:43.557Z,2.73
2023-03-29T12:56:15.368Z,3.60
2023-03-29T12:58:52.467Z,3.40
2023-03-29T13:01:29.654Z,1.77
2023-03-29T13:04:14.266Z,4.53
2023-03-29T13:07:02.960Z,2.70
2023-03-29T13:09:35.442Z,2.93
2023-03-29T13:12:10.172Z,2.67
2023-03-29T13:14:42.594Z,2.10
2023-03-29T13:17:19.811Z,2.70
2023-03-29T13:19:52.991Z,3.07
2023-03-29T13:22:33.985Z,3.07
2023-03-29T13:25:15.456Z,3.83
2023-03-29T13:27:49.572Z,4.07
2023-03-29T13:30:25.679Z,3.40
2023-03-29T13:33:07.907Z,5.13
2023-03-29T13:35:46.026Z,4.00
2023-03-29T13:38:20.643Z,2.00
2023-03-29T13:41:02.893Z,3.13
2023-03-29T13:43:34.680Z,2.50
2023-03-29T13:46:24.517Z,3.53
2023-03-29T13:48:58.282Z,5.73
2023-03-29T13:51:37.791Z,4.47
2023-03-29T13:54:28.186Z,2.80
2023-03-29T13:57:04.753Z,6.87
2023-03-29T13:59:39.319Z,5.47
2023-03-29T14:02:07.875Z,3.50
2023-03-29T14:04:41.906Z,3.63
2023-03-29T14:07:13.403Z,8.40
2023-03-29T14:09:46.127Z,3.47
2023-03-29T14:12:15.585Z,3.80
2023-03-29T14:14:58.369Z,5.03
2023-03-29T14:17:27.792Z,3.63
2023-03-29T14:19:58.755Z,4.40
2023-03-29T14:22:32.022Z,6.03
2023-03-29T14:25:04.625Z,6.30
2023-03-29T14:27:33.557Z,4.20
2023-03-29T14:30:01.770Z,6.27
2023-03-29T14:32:31.385Z,8.43
2023-03-29T14:35:01.181Z,4.27
2023-03-29T14:37:29.647Z,4.70
2023-03-29T14:39:59.411Z,5.40
2023-03-29T14:42:29.936Z,5.70
2023-03-29T14:45:06.302Z,5.70
2023-03-29T14:47:35.193Z,4.37
2023-03-29T14:50:03.952Z,5.60
2023-03-29T14:52:32.956Z,5.13
2023-03-29T14:55:02.257Z,4.27
2023-03-29T14:57:37.764Z,6.53
2023-03-29T15:00:19.398Z,3.53
2023-03-29T15:02:52.342Z,3.67
2023-03-29T15:05:25.737Z,4.33
2023-03-29T15:07:56.331Z,4.40
2023-03-29T15:10:24.605Z,5.70
2023-03-29T15:12:54.977Z,6.40
2023-03-29T15:15:25.757Z,3.73
2023-03-29T15:17:53.772Z,8.60
2023-03-29T15:20:25.719Z,4.83
2023-03-29T15:22:55.780Z,6.20
2023-03-29T15:25:23.774Z,3.10
2023-03-29T15:28:04.616Z,7.13
2023-03-29T15:30:39.031Z,3.50
2023-03-29T15:33:18.072Z,3.33
2023-03-29T15:35:50.417Z,5.50
2023-03-29T15:38:18.550Z,4.67
2023-03-29T15:40:47.474Z,5.40
2023-03-29T15:43:16.694Z,5.10
2023-03-29T15:45:46.618Z,6.80
2023-03-29T15:48:18.754Z,5.87
2023-03-29T15:50:46.833Z,6.20
2023-03-29T15:53:16.975Z,4.20
2023-03-29T15:55:48.081Z,7.30
2023-03-29T15:58:19.795Z,5.60
2023-03-29T16:00:51.987Z,5.77
2023-03-29T16:03:19.934Z,4.33
2023-03-29T16:05:47.925Z,2.23
2023-03-29T16:08:15.722Z,6.27
2023-03-29T16:10:44.691Z,4.47
2023-03-29T16:13:14.468Z,7.63
2023-03-29T16:15:44.023Z,6.07
2023-03-29T16:18:11.857Z,2.60
2023-03-29T16:20:39.931Z,6.53
2023-03-29T16:23:09.356Z,3.77
2023-03-29T16:25:39.803Z,4.30
2023-03-29T16:28:09.081Z,7.70
2023-03-29T16:30:38.372Z,8.10
2023-03-29T16:33:08.577Z,3.40
2023-03-29T16:35:39.778Z,8.57
2023-03-29T16:38:08.620Z,6.30
2023-03-29T16:40:36.848Z,5.23
2023-03-29T16:43:04.978Z,8.50
2023-03-29T16:45:32.833Z,5.70
2023-03-29T16:48:00.802Z,3.20
2023-03-29T16:50:29.986Z,10.20
2023-03-29T16:52:57.842Z,5.93
2023-03-29T16:55:25.651Z,4.00
2023-03-29T16:57:53.814Z,6.50
2023-03-29T17:00:23.019Z,5.20
2023-03-29T17:02:51.004Z,6.53
2023-03-29T17:05:19.635Z,4.20
2023-03-29T17:07:48.787Z,6.27
2023-03-29T17:10:16.591Z,6.23
2023-03-29T17:12:44.425Z,6.13
2023-03-29T17:15:12.383Z,5.47
2023-03-29T17:17:40.415Z,5.10
2023-03-29T17:20:11.797Z,5.50
2023-03-29T17:22:39.773Z,6.47
2023-03-29T17:25:10.202Z,6.23
2023-03-29T17:27:38.480Z,7.70
2023-03-29T17:30:07.351Z,7.37
2023-03-29T17:32:37.414Z,4.73
2023-03-29T17:35:05.798Z,5.67
2023-03-29T17:37:33.572Z,3.40
2023-03-29T17:40:07.137Z,9.40
2023-03-29T17:42:36.374Z,6.10
2023-03-29T17:45:04.501Z,6.17
2023-03-29T17:47:32.327Z,5.80
2023-03-29T17:50:00.753Z,8.63
2023-03-29T17:52:28.616Z,5.37
2023-03-29T17:54:56.493Z,4.80
2023-03-29T17:57:24.476Z,3.93
2023-03-29T17:59:53.658Z,8.07
2023-03-29T18:02:23.727Z,4.73
2023-03-29T18:04:51.961Z,7.90
2023-03-29T18:07:19.814Z,6.07
2023-03-29T18:09:47.589Z,6.73
2023-03-29T18:12:15.396Z,4.97
2023-03-29T18:14:43.217Z,4.20
2023-03-29T18:17:12.356Z,4.70
2023-03-29T18:19:40.362Z,6.53
2023-03-29T18:22:08.178Z,6.93
2023-03-29T18:24:36.044Z,3.63
2023-03-29T18:27:03.818Z,4.60
2023-03-29T18:29:31.618Z,4.13
2023-03-29T18:32:02.716Z,7.77
2023-03-29T18:34:32.237Z,7.20
2023-03-29T18:37:00.436Z,8.97
2023-03-29T18:39:28.300Z,6.10
2023-03-29T18:41:56.433Z,5.50
2023-03-29T18:44:27.412Z,5.87
2023-03-29T18:46:56.235Z,4.77
2023-03-29T18:49:24.931Z,6.30
2023-03-29T18:51:54.297Z,9.80
2023-03-29T18:54:22.252Z,6.33
2023-03-29T18:56:50.282Z,10.50
2023-03-29T18:59:18.128Z,12.17
2023-03-29T19:01:46.360Z,6.87
2023-03-29T19:04:14.399Z,7.40
2023-03-29T19:06:42.640Z,7.27
2023-03-29T19:09:11.816Z,9.20
2023-03-29T19:11:39.557Z,7.50
2023-03-29T19:14:08.912Z,8.60
2023-03-29T19:16:36.915Z,6.57
2023-03-29T19:19:06.606Z,7.00
2023-03-29T19:21:34.388Z,11.27
2023-03-29T19:24:04.969Z,8.63
2023-03-29T19:26:34.594Z,11.87
2023-03-29T19:29:02.561Z,8.37
2023-03-29T19:31:30.406Z,7.13
2023-03-29T19:33:58.161Z,12.40
2023-03-29T19:36:26.418Z,8.93
2023-03-29T19:38:54.193Z,7.20
2023-03-29T19:41:22.025Z,7.87
2023-03-29T19:43:51.140Z,6.37
2023-03-29T19:46:20.325Z,8.97
2023-03-29T19:48:48.342Z,7.73
2023-03-29T19:51:16.696Z,6.07
2023-03-29T19:53:44.606Z,8.40
2023-03-29T19:56:14.265Z,9.60
2023-03-29T19:58:42.131Z,11.47
2023-03-29T20:01:11.350Z,7.20
2023-03-29T20:03:40.434Z,7.60
2023-03-29T20:06:10.307Z,12.90
2023-03-29T20:08:38.851Z,11.53
2023-03-29T20:11:10.009Z,9.73
2023-03-29T20:13:39.194Z,10.40
2023-03-29T20:16:08.441Z,10.60
2023-03-29T20:18:38.586Z,10.83
2023-03-29T20:21:07.147Z,8.33
2023-03-29T20:23:35.376Z,9.67
2023-03-29T20:26:03.214Z,10.00
2023-03-29T20:28:31.345Z,10.27
2023-03-29T20:31:04.104Z,13.70
2023-03-29T20:33:31.983Z,7.53
2023-03-29T20:36:01.343Z,9.40
2023-03-29T20:38:29.400Z,8.60
2023-03-29T20:40:57.188Z,8.70
2023-03-29T20:43:24.980Z,9.90
2023-03-29T20:45:54.227Z,14.20
2023-03-29T20:48:24.302Z,8.83
2023-03-29T20:50:52.602Z,6.67
2023-03-29T20:53:21.760Z,11.70
2023-03-29T20:55:49.602Z,13.47
2023-03-29T20:58:17.361Z,12.63
2023-03-29T21:00:45.271Z,8.57
2023-03-29T21:03:13.123Z,13.17
2023-03-29T21:05:40.957Z,10.70
2023-03-29T21:08:08.730Z,9.53
2023-03-29T21:10:37.834Z,13.73
2023-03-29T21:13:05.880Z,9.10
2023-03-29T21:15:33.748Z,9.93
2023-03-29T21:18:01.928Z,8.70
2023-03-29T21:20:29.865Z,22.63
2023-03-29T21:22:58.035Z,13.13
2023-03-29T21:25:25.822Z,6.43
2023-03-29T21:27:54.884Z,6.37
2023-03-29T21:30:22.733Z,12.80
2023-03-29T21:32:50.849Z,10.17
2023-03-29T21:35:18.812Z,14.17
2023-03-29T21:37:46.582Z,14.03
2023-03-29T21:40:15.193Z,11.67
2023-03-29T21:42:42.982Z,16.33
2023-03-29T21:45:12.873Z,10.30
2023-03-29T21:47:40.769Z,9.27
2023-03-29T21:50:09.359Z,11.60
2023-03-29T21:52:37.711Z,15.47
2023-03-29T21:55:05.898Z,9.07
2023-03-29T21:57:33.747Z,7.00
2023-03-29T22:00:01.558Z,13.53
2023-03-29T22:02:30.761Z,12.67
2023-03-29T22:04:58.596Z,11.70
2023-03-29T22:07:26.459Z,14.17
2023-03-29T22:09:54.671Z,12.80
2023-03-29T22:12:22.677Z,12.03
2023-03-29T22:14:50.454Z,11.60
2023-03-29T22:17:18.570Z,12.23
2023-03-29T22:19:47.794Z,9.83
2023-03-29T22:22:16.229Z,12.20
2023-03-29T22:24:44.089Z,13.20
2023-03-29T22:27:11.957Z,10.90
2023-03-29T22:29:39.838Z,10.07
2023-03-29T22:32:07.665Z,10.30
2023-03-29T22:34:35.694Z,17.07
2023-03-29T22:37:04.883Z,7.17
2023-03-29T22:39:35.485Z,10.30
2023-03-29T22:42:03.292Z,10.70
2023-03-29T22:44:31.381Z,8.20
2023-03-29T22:46:59.265Z,11.27
2023-03-29T22:49:27.239Z,14.33
2023-03-29T22:51:55.038Z,12.03
2023-03-29T22:54:24.134Z,8.70
2023-03-29T22:56:51.911Z,14.27
2023-03-29T22:59:19.811Z,17.83
2023-03-29T23:01:48.216Z,11.53
2023-03-29T23:04:16.916Z,14.30
2023-03-29T23:06:44.761Z,14.03
2023-03-29T23:09:14.500Z,11.90
2023-03-29T23:11:45.085Z,15.97
2023-03-29T23:14:12.958Z,12.03
2023-03-29T23:16:40.744Z,13.93
2023-03-29T23:19:08.508Z,11.20
2023-03-29T23:21:37.038Z,7.00
2023-03-29T23:24:05.896Z,13.73
2023-03-29T23:26:33.829Z,9.33
2023-03-29T23:29:04.106Z,6.80
2023-03-29T23:31:33.756Z,19.50
2023-03-29T23:34:03.130Z,11.57
2023-03-29T23:36:31.450Z,11.53
2023-03-29T23:38:59.732Z,10.63
2023-03-29T23:41:28.294Z,13.90
2023-03-29T23:43:57.512Z,14.70
2023-03-29T23:46:26.676Z,13.63
2023-03-29T23:48:54.586Z,12.33
2023-03-29T23:51:23.386Z,14.40
2023-03-29T23:53:51.686Z,12.50
2023-03-29T23:56:19.733Z,12.10
2023-03-29T23:58:47.509Z,11.93
